sensor_id;sensor_type;location;lat;lon;timestamp;pressure;altitude;pressure_sealevel;temperature;humidity
23867;BME280;12114;53.404;-1.502;2024-01-06T00:00:26;100236.72;;;7.75;100.00
23867;BME280;12114;53.404;-1.502;2024-01-06T00:03:10;100236.59;;;7.72;100.00
23867;BME280;12114;53.404;-1.502;2024-01-06T00:05:54;100235.78;;;7.71;100.00
23867;BME280;12114;53.404;-1.502;2024-01-06T00:08:38;100243.50;;;7.65;100.00
23867;BME280;12114;53.404;-1.502;2024-01-06T00:11:22;100241.66;;;7.69;100.00
23867;BME280;12114;53.404;-1.502;2024-01-06T00:14:07;100242.34;;;7.66;100.00
23867;BME280;12114;53.404;-1.502;2024-01-06T00:16:51;100248.34;;;7.56;100.00
23867;BME280;12114;53.404;-1.502;2024-01-06T00:19:35;100257.78;;;7.55;100.00
23867;BME280;12114;53.404;-1.502;2024-01-06T00:22:19;100261.34;;;7.56;100.00
23867;BME280;12114;53.404;-1.502;2024-01-06T00:25:03;100272.41;;;7.56;100.00
23867;BME280;12114;53.404;-1.502;2024-01-06T00:27:48;100275.88;;;7.65;100.00
23867;BME280;12114;53.404;-1.502;2024-01-06T00:30:32;100271.59;;;7.55;100.00
23867;BME280;12114;53.404;-1.502;2024-01-06T00:33:16;100281.97;;;7.58;100.00
23867;BME280;12114;53.404;-1.502;2024-01-06T00:36:00;100285.19;;;7.60;100.00
23867;BME280;12114;53.404;-1.502;2024-01-06T00:38:44;100283.34;;;7.64;100.00
23867;BME280;12114;53.404;-1.502;2024-01-06T00:41:28;100286.44;;;7.63;100.00
23867;BME280;12114;53.404;-1.502;2024-01-06T00:44:12;100296.50;;;7.67;100.00
23867;BME280;12114;53.404;-1.502;2024-01-06T00:46:56;100292.09;;;7.66;100.00
23867;BME280;12114;53.404;-1.502;2024-01-06T00:49:40;100294.19;;;7.69;100.00
23867;BME280;12114;53.404;-1.502;2024-01-06T00:52:24;100306.50;;;7.72;100.00
23867;BME280;12114;53.404;-1.502;2024-01-06T00:55:08;100297.66;;;7.79;100.00
23867;BME280;12114;53.404;-1.502;2024-01-06T00:57:52;100300.34;;;7.75;100.00
23867;BME280;12114;53.404;-1.502;2024-01-06T01:00:36;100299.28;;;7.80;100.00
23867;BME280;12114;53.404;-1.502;2024-01-06T01:03:20;100304.81;;;7.80;100.00
23867;BME280;12114;53.404;-1.502;2024-01-06T01:06:04;100306.44;;;7.81;100.00
23867;BME280;12114;53.404;-1.502;2024-01-06T01:08:48;100306.91;;;7.83;100.00
23867;BME280;12114;53.404;-1.502;2024-01-06T01:11:32;100301.03;;;7.84;100.00
23867;BME280;12114;53.404;-1.502;2024-01-06T01:14:16;100302.75;;;7.89;100.00
23867;BME280;12114;53.404;-1.502;2024-01-06T01:17:02;100304.50;;;7.93;100.00
23867;BME280;12114;53.404;-1.502;2024-01-06T01:19:48;100312.44;;;7.95;100.00
23867;BME280;12114;53.404;-1.502;2024-01-06T01:22:32;100312.69;;;7.90;100.00
23867;BME280;12114;53.404;-1.502;2024-01-06T01:25:16;100311.50;;;7.91;100.00
23867;BME280;12114;53.404;-1.502;2024-01-06T01:28:00;100323.63;;;7.98;100.00
23867;BME280;12114;53.404;-1.502;2024-01-06T01:30:44;100323.41;;;8.03;100.00
23867;BME280;12114;53.404;-1.502;2024-01-06T01:33:28;100323.88;;;8.05;100.00
23867;BME280;12114;53.404;-1.502;2024-01-06T01:36:12;100319.13;;;8.06;100.00
23867;BME280;12114;53.404;-1.502;2024-01-06T01:38:56;100334.59;;;8.07;100.00
23867;BME280;12114;53.404;-1.502;2024-01-06T01:41:40;100339.09;;;8.11;100.00
23867;BME280;12114;53.404;-1.502;2024-01-06T01:44:24;100342.56;;;8.08;100.00
23867;BME280;12114;53.404;-1.502;2024-01-06T01:47:08;100343.47;;;8.12;100.00
23867;BME280;12114;53.404;-1.502;2024-01-06T01:49:53;100344.72;;;8.15;100.00
23867;BME280;12114;53.404;-1.502;2024-01-06T01:52:39;100338.88;;;8.16;100.00
23867;BME280;12114;53.404;-1.502;2024-01-06T01:55:25;100348.53;;;8.10;100.00
23867;BME280;12114;53.404;-1.502;2024-01-06T01:58:10;100353.41;;;8.13;100.00
23867;BME280;12114;53.404;-1.502;2024-01-06T02:00:56;100349.34;;;8.11;100.00
23867;BME280;12114;53.404;-1.502;2024-01-06T02:03:41;100351.19;;;8.19;100.00
23867;BME280;12114;53.404;-1.502;2024-01-06T02:06:27;100352.13;;;8.11;100.00
23867;BME280;12114;53.404;-1.502;2024-01-06T02:09:11;100347.72;;;8.10;100.00
23867;BME280;12114;53.404;-1.502;2024-01-06T02:11:58;100355.59;;;8.20;100.00
23867;BME280;12114;53.404;-1.502;2024-01-06T02:14:43;100356.41;;;8.08;100.00
23867;BME280;12114;53.404;-1.502;2024-01-06T02:17:27;100367.34;;;8.05;100.00
23867;BME280;12114;53.404;-1.502;2024-01-06T02:20:11;100369.75;;;8.06;100.00
23867;BME280;12114;53.404;-1.502;2024-01-06T02:22:56;100377.59;;;8.04;100.00
23867;BME280;12114;53.404;-1.502;2024-01-06T02:25:45;100383.47;;;8.15;100.00
23867;BME280;12114;53.404;-1.502;2024-01-06T02:28:29;100387.50;;;8.05;100.00
23867;BME280;12114;53.404;-1.502;2024-01-06T02:31:13;100401.00;;;8.07;100.00
23867;BME280;12114;53.404;-1.502;2024-01-06T02:33:58;100407.78;;;8.09;100.00
23867;BME280;12114;53.404;-1.502;2024-01-06T02:36:42;100411.03;;;8.11;100.00
23867;BME280;12114;53.404;-1.502;2024-01-06T02:39:26;100417.38;;;8.12;100.00
23867;BME280;12114;53.404;-1.502;2024-01-06T02:42:10;100421.63;;;8.09;100.00
23867;BME280;12114;53.404;-1.502;2024-01-06T02:44:54;100413.31;;;8.09;100.00
23867;BME280;12114;53.404;-1.502;2024-01-06T02:47:38;100420.81;;;8.09;100.00
23867;BME280;12114;53.404;-1.502;2024-01-06T02:50:21;100427.97;;;8.10;100.00
23867;BME280;12114;53.404;-1.502;2024-01-06T02:53:05;100420.94;;;8.12;100.00
23867;BME280;12114;53.404;-1.502;2024-01-06T02:55:49;100427.66;;;8.11;100.00
23867;BME280;12114;53.404;-1.502;2024-01-06T02:58:33;100429.81;;;8.06;100.00
23867;BME280;12114;53.404;-1.502;2024-01-06T03:01:17;100437.09;;;8.10;100.00
23867;BME280;12114;53.404;-1.502;2024-01-06T03:04:01;100445.38;;;8.10;100.00
23867;BME280;12114;53.404;-1.502;2024-01-06T03:06:45;100446.53;;;8.09;100.00
23867;BME280;12114;53.404;-1.502;2024-01-06T03:09:35;100448.50;;;8.09;100.00
23867;BME280;12114;53.404;-1.502;2024-01-06T03:12:19;100451.47;;;8.04;100.00
23867;BME280;12114;53.404;-1.502;2024-01-06T03:15:03;100459.09;;;8.07;100.00
23867;BME280;12114;53.404;-1.502;2024-01-06T03:17:48;100454.94;;;8.01;100.00
23867;BME280;12114;53.404;-1.502;2024-01-06T03:20:32;100453.63;;;7.86;100.00
23867;BME280;12114;53.404;-1.502;2024-01-06T03:23:16;100455.25;;;7.87;100.00
23867;BME280;12114;53.404;-1.502;2024-01-06T03:26:05;100450.22;;;8.01;100.00
23867;BME280;12114;53.404;-1.502;2024-01-06T03:28:50;100470.00;;;7.91;100.00
23867;BME280;12114;53.404;-1.502;2024-01-06T03:31:34;100462.50;;;7.92;100.00
23867;BME280;12114;53.404;-1.502;2024-01-06T03:34:18;100474.25;;;7.89;100.00
23867;BME280;12114;53.404;-1.502;2024-01-06T03:37:02;100479.69;;;7.97;100.00
23867;BME280;12114;53.404;-1.502;2024-01-06T03:39:46;100477.59;;;7.94;100.00
23867;BME280;12114;53.404;-1.502;2024-01-06T03:42:30;100483.91;;;7.83;100.00
23867;BME280;12114;53.404;-1.502;2024-01-06T03:45:15;100480.81;;;7.84;100.00
23867;BME280;12114;53.404;-1.502;2024-01-06T03:47:59;100471.16;;;7.90;100.00
23867;BME280;12114;53.404;-1.502;2024-01-06T03:50:43;100479.81;;;8.01;100.00
23867;BME280;12114;53.404;-1.502;2024-01-06T03:53:27;100478.69;;;8.02;100.00
23867;BME280;12114;53.404;-1.502;2024-01-06T03:56:13;100482.50;;;8.09;100.00
23867;BME280;12114;53.404;-1.502;2024-01-06T03:58:57;100490.97;;;7.92;100.00
23867;BME280;12114;53.404;-1.502;2024-01-06T04:01:41;100489.66;;;7.78;100.00
23867;BME280;12114;53.404;-1.502;2024-01-06T04:04:28;100484.84;;;7.66;100.00
23867;BME280;12114;53.404;-1.502;2024-01-06T04:07:12;100494.63;;;7.63;100.00
23867;BME280;12114;53.404;-1.502;2024-01-06T04:09:56;100497.47;;;7.55;100.00
23867;BME280;12114;53.404;-1.502;2024-01-06T04:12:40;100503.88;;;7.47;100.00
23867;BME280;12114;53.404;-1.502;2024-01-06T04:15:24;100494.41;;;7.27;100.00
23867;BME280;12114;53.404;-1.502;2024-01-06T04:18:08;100504.78;;;7.30;100.00
23867;BME280;12114;53.404;-1.502;2024-01-06T04:20:53;100507.63;;;7.22;100.00
23867;BME280;12114;53.404;-1.502;2024-01-06T04:23:37;100513.66;;;7.15;100.00
23867;BME280;12114;53.404;-1.502;2024-01-06T04:26:21;100511.31;;;7.05;100.00
23867;BME280;12114;53.404;-1.502;2024-01-06T04:29:05;100517.88;;;6.92;100.00
23867;BME280;12114;53.404;-1.502;2024-01-06T04:31:49;100511.72;;;6.86;100.00
23867;BME280;12114;53.404;-1.502;2024-01-06T04:34:33;100522.63;;;6.83;100.00
23867;BME280;12114;53.404;-1.502;2024-01-06T04:37:17;100519.56;;;6.76;100.00
23867;BME280;12114;53.404;-1.502;2024-01-06T04:40:01;100521.69;;;6.70;100.00
23867;BME280;12114;53.404;-1.502;2024-01-06T04:42:46;100522.19;;;6.64;100.00
23867;BME280;12114;53.404;-1.502;2024-01-06T04:45:30;100519.16;;;6.56;100.00
23867;BME280;12114;53.404;-1.502;2024-01-06T04:48:14;100519.66;;;6.50;100.00
23867;BME280;12114;53.404;-1.502;2024-01-06T04:50:58;100527.78;;;6.46;100.00
23867;BME280;12114;53.404;-1.502;2024-01-06T04:53:42;100525.06;;;6.38;100.00
23867;BME280;12114;53.404;-1.502;2024-01-06T04:56:26;100524.72;;;6.31;100.00
23867;BME280;12114;53.404;-1.502;2024-01-06T04:59:10;100523.63;;;6.15;100.00
23867;BME280;12114;53.404;-1.502;2024-01-06T05:01:54;100530.94;;;6.19;100.00
23867;BME280;12114;53.404;-1.502;2024-01-06T05:04:38;100538.88;;;6.12;100.00
23867;BME280;12114;53.404;-1.502;2024-01-06T05:07:22;100536.47;;;6.11;100.00
23867;BME280;12114;53.404;-1.502;2024-01-06T05:10:06;100542.28;;;6.09;100.00
23867;BME280;12114;53.404;-1.502;2024-01-06T05:12:51;100554.47;;;5.99;100.00
23867;BME280;12114;53.404;-1.502;2024-01-06T05:15:35;100548.78;;;5.87;100.00
23867;BME280;12114;53.404;-1.502;2024-01-06T05:18:19;100558.16;;;5.78;100.00
23867;BME280;12114;53.404;-1.502;2024-01-06T05:21:03;100560.91;;;5.69;100.00
23867;BME280;12114;53.404;-1.502;2024-01-06T05:23:48;100567.22;;;5.61;100.00
23867;BME280;12114;53.404;-1.502;2024-01-06T05:26:31;100568.06;;;5.62;100.00
23867;BME280;12114;53.404;-1.502;2024-01-06T05:29:15;100569.00;;;5.57;100.00
23867;BME280;12114;53.404;-1.502;2024-01-06T05:32:00;100583.59;;;5.49;100.00
23867;BME280;12114;53.404;-1.502;2024-01-06T05:34:44;100583.56;;;5.40;100.00
23867;BME280;12114;53.404;-1.502;2024-01-06T05:37:28;100585.97;;;5.33;100.00
23867;BME280;12114;53.404;-1.502;2024-01-06T05:40:12;100594.38;;;5.20;100.00
23867;BME280;12114;53.404;-1.502;2024-01-06T05:42:56;100601.13;;;5.14;100.00
23867;BME280;12114;53.404;-1.502;2024-01-06T05:45:40;100597.63;;;5.22;100.00
23867;BME280;12114;53.404;-1.502;2024-01-06T05:48:27;100603.41;;;5.12;100.00
23867;BME280;12114;53.404;-1.502;2024-01-06T05:51:11;100605.88;;;5.22;100.00
23867;BME280;12114;53.404;-1.502;2024-01-06T05:53:55;100612.38;;;5.26;100.00
23867;BME280;12114;53.404;-1.502;2024-01-06T05:56:39;100617.88;;;5.26;100.00
23867;BME280;12114;53.404;-1.502;2024-01-06T05:59:24;100612.03;;;5.19;100.00
23867;BME280;12114;53.404;-1.502;2024-01-06T06:02:08;100611.03;;;5.15;100.00
23867;BME280;12114;53.404;-1.502;2024-01-06T06:04:52;100626.09;;;5.17;100.00
23867;BME280;12114;53.404;-1.502;2024-01-06T06:07:36;100632.41;;;5.18;100.00
23867;BME280;12114;53.404;-1.502;2024-01-06T06:10:22;100636.16;;;5.22;100.00
23867;BME280;12114;53.404;-1.502;2024-01-06T06:13:07;100640.22;;;5.24;100.00
23867;BME280;12114;53.404;-1.502;2024-01-06T06:15:55;100639.22;;;5.20;100.00
23867;BME280;12114;53.404;-1.502;2024-01-06T06:18:40;100639.38;;;5.15;100.00
23867;BME280;12114;53.404;-1.502;2024-01-06T06:21:24;100642.91;;;5.07;100.00
23867;BME280;12114;53.404;-1.502;2024-01-06T06:24:08;100652.44;;;5.01;100.00
23867;BME280;12114;53.404;-1.502;2024-01-06T06:26:52;100648.53;;;5.02;100.00
23867;BME280;12114;53.404;-1.502;2024-01-06T06:29:36;100651.94;;;4.99;100.00
23867;BME280;12114;53.404;-1.502;2024-01-06T06:32:21;100651.94;;;4.99;100.00
23867;BME280;12114;53.404;-1.502;2024-01-06T06:35:05;100663.28;;;4.97;100.00
23867;BME280;12114;53.404;-1.502;2024-01-06T06:37:50;100666.13;;;4.92;100.00
23867;BME280;12114;53.404;-1.502;2024-01-06T06:40:34;100675.03;;;4.89;100.00
23867;BME280;12114;53.404;-1.502;2024-01-06T06:43:18;100681.78;;;4.83;100.00
23867;BME280;12114;53.404;-1.502;2024-01-06T06:46:03;100691.69;;;4.84;100.00
23867;BME280;12114;53.404;-1.502;2024-01-06T06:48:47;100687.28;;;4.83;100.00
23867;BME280;12114;53.404;-1.502;2024-01-06T06:51:31;100697.44;;;4.74;100.00
23867;BME280;12114;53.404;-1.502;2024-01-06T06:54:15;100696.56;;;4.65;100.00
23867;BME280;12114;53.404;-1.502;2024-01-06T06:57:02;100708.66;;;4.56;100.00
23867;BME280;12114;53.404;-1.502;2024-01-06T06:59:46;100713.97;;;4.52;100.00
23867;BME280;12114;53.404;-1.502;2024-01-06T07:02:30;100717.84;;;4.51;100.00
23867;BME280;12114;53.404;-1.502;2024-01-06T07:05:14;100717.91;;;4.60;100.00
23867;BME280;12114;53.404;-1.502;2024-01-06T07:08:00;100723.28;;;4.65;100.00
23867;BME280;12114;53.404;-1.502;2024-01-06T07:10:44;100724.44;;;4.50;100.00
23867;BME280;12114;53.404;-1.502;2024-01-06T07:13:28;100733.66;;;4.46;100.00
23867;BME280;12114;53.404;-1.502;2024-01-06T07:16:12;100745.16;;;4.48;100.00
23867;BME280;12114;53.404;-1.502;2024-01-06T07:18:57;100749.34;;;4.45;100.00
23867;BME280;12114;53.404;-1.502;2024-01-06T07:21:41;100754.84;;;4.45;100.00
23867;BME280;12114;53.404;-1.502;2024-01-06T07:24:25;100753.81;;;4.41;100.00
23867;BME280;12114;53.404;-1.502;2024-01-06T07:27:10;100760.06;;;4.33;100.00
23867;BME280;12114;53.404;-1.502;2024-01-06T07:29:55;100768.31;;;4.33;100.00
23867;BME280;12114;53.404;-1.502;2024-01-06T07:32:39;100768.13;;;4.29;100.00
23867;BME280;12114;53.404;-1.502;2024-01-06T07:35:23;100770.66;;;4.26;100.00
23867;BME280;12114;53.404;-1.502;2024-01-06T07:38:07;100779.72;;;4.26;100.00
23867;BME280;12114;53.404;-1.502;2024-01-06T07:40:51;100784.41;;;4.26;100.00
23867;BME280;12114;53.404;-1.502;2024-01-06T07:43:35;100791.56;;;4.27;100.00
23867;BME280;12114;53.404;-1.502;2024-01-06T07:46:19;100789.22;;;4.20;100.00
23867;BME280;12114;53.404;-1.502;2024-01-06T07:49:03;100794.09;;;4.23;100.00
23867;BME280;12114;53.404;-1.502;2024-01-06T07:51:48;100795.84;;;4.19;100.00
23867;BME280;12114;53.404;-1.502;2024-01-06T07:54:32;100797.78;;;4.19;100.00
23867;BME280;12114;53.404;-1.502;2024-01-06T07:57:18;100799.22;;;4.16;100.00
23867;BME280;12114;53.404;-1.502;2024-01-06T08:00:03;100801.66;;;4.18;100.00
23867;BME280;12114;53.404;-1.502;2024-01-06T08:02:47;100806.03;;;4.19;100.00
23867;BME280;12114;53.404;-1.502;2024-01-06T08:05:31;100817.31;;;4.17;100.00
23867;BME280;12114;53.404;-1.502;2024-01-06T08:08:15;100814.97;;;4.11;100.00
23867;BME280;12114;53.404;-1.502;2024-01-06T08:11:00;100817.03;;;4.05;100.00
23867;BME280;12114;53.404;-1.502;2024-01-06T08:13:45;100825.88;;;4.02;100.00
23867;BME280;12114;53.404;-1.502;2024-01-06T08:16:29;100836.06;;;4.02;100.00
23867;BME280;12114;53.404;-1.502;2024-01-06T08:19:13;100834.75;;;3.99;100.00
23867;BME280;12114;53.404;-1.502;2024-01-06T08:21:57;100839.94;;;4.01;100.00
23867;BME280;12114;53.404;-1.502;2024-01-06T08:24:41;100849.72;;;3.93;100.00
23867;BME280;12114;53.404;-1.502;2024-01-06T08:27:25;100847.16;;;3.83;100.00
23867;BME280;12114;53.404;-1.502;2024-01-06T08:30:10;100855.50;;;3.78;100.00
23867;BME280;12114;53.404;-1.502;2024-01-06T08:32:54;100859.97;;;3.74;100.00
23867;BME280;12114;53.404;-1.502;2024-01-06T08:35:38;100870.16;;;3.73;100.00
23867;BME280;12114;53.404;-1.502;2024-01-06T08:38:24;100882.75;;;3.74;100.00
23867;BME280;12114;53.404;-1.502;2024-01-06T08:41:08;100881.44;;;3.72;100.00
23867;BME280;12114;53.404;-1.502;2024-01-06T08:43:52;100883.56;;;3.75;100.00
23867;BME280;12114;53.404;-1.502;2024-01-06T08:46:36;100896.00;;;3.72;100.00
23867;BME280;12114;53.404;-1.502;2024-01-06T08:49:22;100897.22;;;3.80;100.00
23867;BME280;12114;53.404;-1.502;2024-01-06T08:52:06;100902.53;;;3.90;100.00
23867;BME280;12114;53.404;-1.502;2024-01-06T08:54:50;100907.34;;;3.98;100.00
23867;BME280;12114;53.404;-1.502;2024-01-06T08:57:34;100913.47;;;4.09;100.00
23867;BME280;12114;53.404;-1.502;2024-01-06T09:00:18;100908.47;;;4.11;100.00
23867;BME280;12114;53.404;-1.502;2024-01-06T09:03:03;100916.84;;;4.19;100.00
23867;BME280;12114;53.404;-1.502;2024-01-06T09:05:47;100918.38;;;4.25;100.00
23867;BME280;12114;53.404;-1.502;2024-01-06T09:08:31;100919.31;;;4.34;100.00
23867;BME280;12114;53.404;-1.502;2024-01-06T09:11:18;100926.22;;;4.46;100.00
23867;BME280;12114;53.404;-1.502;2024-01-06T09:14:02;100927.84;;;4.33;100.00
23867;BME280;12114;53.404;-1.502;2024-01-06T09:16:46;100933.66;;;4.31;100.00
23867;BME280;12114;53.404;-1.502;2024-01-06T09:19:30;100943.25;;;4.34;100.00
23867;BME280;12114;53.404;-1.502;2024-01-06T09:22:17;100944.25;;;4.38;100.00
23867;BME280;12114;53.404;-1.502;2024-01-06T09:25:01;100952.41;;;4.43;100.00
23867;BME280;12114;53.404;-1.502;2024-01-06T09:27:45;100944.38;;;4.47;100.00
23867;BME280;12114;53.404;-1.502;2024-01-06T09:30:29;100954.94;;;4.53;100.00
23867;BME280;12114;53.404;-1.502;2024-01-06T09:33:13;100955.75;;;4.54;100.00
23867;BME280;12114;53.404;-1.502;2024-01-06T09:36:00;100959.75;;;4.61;100.00
23867;BME280;12114;53.404;-1.502;2024-01-06T09:38:44;100957.59;;;4.58;100.00
23867;BME280;12114;53.404;-1.502;2024-01-06T09:41:28;100968.22;;;4.65;100.00
23867;BME280;12114;53.404;-1.502;2024-01-06T09:44:13;100968.38;;;4.68;100.00
23867;BME280;12114;53.404;-1.502;2024-01-06T09:46:58;100979.00;;;4.75;100.00
23867;BME280;12114;53.404;-1.502;2024-01-06T09:49:48;100975.91;;;4.90;100.00
23867;BME280;12114;53.404;-1.502;2024-01-06T09:52:33;100975.72;;;4.86;100.00
23867;BME280;12114;53.404;-1.502;2024-01-06T09:55:24;100980.72;;;4.98;100.00
23867;BME280;12114;53.404;-1.502;2024-01-06T09:58:10;100983.34;;;5.03;100.00
23867;BME280;12114;53.404;-1.502;2024-01-06T10:00:55;100987.50;;;5.14;100.00
23867;BME280;12114;53.404;-1.502;2024-01-06T10:03:40;100986.09;;;5.17;100.00
23867;BME280;12114;53.404;-1.502;2024-01-06T10:06:24;100995.34;;;5.21;100.00
23867;BME280;12114;53.404;-1.502;2024-01-06T10:09:09;100990.13;;;5.33;100.00
23867;BME280;12114;53.404;-1.502;2024-01-06T10:11:55;100999.50;;;5.45;100.00
23867;BME280;12114;53.404;-1.502;2024-01-06T10:14:40;101003.56;;;5.48;100.00
23867;BME280;12114;53.404;-1.502;2024-01-06T10:17:24;101001.50;;;5.53;100.00
23867;BME280;12114;53.404;-1.502;2024-01-06T10:20:10;101002.09;;;5.64;100.00
23867;BME280;12114;53.404;-1.502;2024-01-06T10:22:54;101006.78;;;5.64;100.00
23867;BME280;12114;53.404;-1.502;2024-01-06T10:25:38;101014.63;;;5.70;100.00
23867;BME280;12114;53.404;-1.502;2024-01-06T10:28:24;101020.53;;;5.77;100.00
23867;BME280;12114;53.404;-1.502;2024-01-06T10:31:08;101013.88;;;5.78;100.00
23867;BME280;12114;53.404;-1.502;2024-01-06T10:33:54;101014.97;;;5.91;100.00
23867;BME280;12114;53.404;-1.502;2024-01-06T10:36:38;101020.00;;;5.89;100.00
23867;BME280;12114;53.404;-1.502;2024-01-06T10:39:23;101012.91;;;5.96;100.00
23867;BME280;12114;53.404;-1.502;2024-01-06T10:42:07;101016.28;;;5.93;100.00
23867;BME280;12114;53.404;-1.502;2024-01-06T10:44:53;101011.28;;;5.95;100.00
23867;BME280;12114;53.404;-1.502;2024-01-06T10:47:41;101015.59;;;6.10;100.00
23867;BME280;12114;53.404;-1.502;2024-01-06T10:50:29;101021.31;;;6.14;100.00
23867;BME280;12114;53.404;-1.502;2024-01-06T10:53:14;101020.53;;;6.22;100.00
23867;BME280;12114;53.404;-1.502;2024-01-06T10:56:01;101025.28;;;6.30;100.00
23867;BME280;12114;53.404;-1.502;2024-01-06T10:58:47;101019.13;;;6.33;100.00
23867;BME280;12114;53.404;-1.502;2024-01-06T11:01:32;101021.78;;;6.38;100.00
23867;BME280;12114;53.404;-1.502;2024-01-06T11:04:18;101024.06;;;6.44;100.00
23867;BME280;12114;53.404;-1.502;2024-01-06T11:07:03;101018.09;;;6.51;100.00
23867;BME280;12114;53.404;-1.502;2024-01-06T11:10:02;101020.31;;;6.71;100.00
23867;BME280;12114;53.404;-1.502;2024-01-06T11:13:12;101017.88;;;6.78;100.00
23867;BME280;12114;53.404;-1.502;2024-01-06T11:15:56;101006.31;;;6.68;100.00
23867;BME280;12114;53.404;-1.502;2024-01-06T11:18:40;101012.50;;;6.73;100.00
23867;BME280;12114;53.404;-1.502;2024-01-06T11:21:33;101015.97;;;6.87;100.00
23867;BME280;12114;53.404;-1.502;2024-01-06T11:24:20;101012.91;;;6.89;100.00
23867;BME280;12114;53.404;-1.502;2024-01-06T11:27:05;101013.06;;;6.84;100.00
23867;BME280;12114;53.404;-1.502;2024-01-06T11:29:53;101012.88;;;6.80;100.00
23867;BME280;12114;53.404;-1.502;2024-01-06T11:32:40;101012.25;;;6.92;100.00
23867;BME280;12114;53.404;-1.502;2024-01-06T11:35:29;101013.94;;;7.10;100.00
23867;BME280;12114;53.404;-1.502;2024-01-06T11:38:13;101012.28;;;7.00;100.00
23867;BME280;12114;53.404;-1.502;2024-01-06T11:40:58;101016.34;;;7.03;100.00
23867;BME280;12114;53.404;-1.502;2024-01-06T11:43:42;101012.31;;;7.09;100.00
23867;BME280;12114;53.404;-1.502;2024-01-06T11:46:27;101008.44;;;7.19;100.00
23867;BME280;12114;53.404;-1.502;2024-01-06T11:49:15;101005.84;;;7.22;100.00
23867;BME280;12114;53.404;-1.502;2024-01-06T11:52:00;101006.66;;;7.31;100.00
23867;BME280;12114;53.404;-1.502;2024-01-06T11:54:45;100999.19;;;7.32;100.00
23867;BME280;12114;53.404;-1.502;2024-01-06T11:57:29;101000.00;;;7.32;100.00
23867;BME280;12114;53.404;-1.502;2024-01-06T12:00:14;101002.13;;;7.35;100.00
23867;BME280;12114;53.404;-1.502;2024-01-06T12:02:59;101007.50;;;7.40;100.00
23867;BME280;12114;53.404;-1.502;2024-01-06T12:05:44;100998.06;;;7.41;100.00
23867;BME280;12114;53.404;-1.502;2024-01-06T12:08:28;101001.31;;;7.43;100.00
23867;BME280;12114;53.404;-1.502;2024-01-06T12:11:17;100996.25;;;7.54;100.00
23867;BME280;12114;53.404;-1.502;2024-01-06T12:14:02;101001.63;;;7.42;100.00
23867;BME280;12114;53.404;-1.502;2024-01-06T12:16:46;100995.13;;;7.55;100.00
23867;BME280;12114;53.404;-1.502;2024-01-06T12:19:32;101011.72;;;7.55;100.00
23867;BME280;12114;53.404;-1.502;2024-01-06T12:22:16;100998.06;;;7.58;100.00
23867;BME280;12114;53.404;-1.502;2024-01-06T12:25:00;101007.19;;;7.59;100.00
23867;BME280;12114;53.404;-1.502;2024-01-06T12:27:44;101006.69;;;7.57;100.00
23867;BME280;12114;53.404;-1.502;2024-01-06T12:30:29;101009.78;;;7.55;100.00
23867;BME280;12114;53.404;-1.502;2024-01-06T12:33:15;101019.72;;;7.56;100.00
23867;BME280;12114;53.404;-1.502;2024-01-06T12:35:59;101012.38;;;7.60;100.00
23867;BME280;12114;53.404;-1.502;2024-01-06T12:38:44;101016.59;;;7.66;100.00
23867;BME280;12114;53.404;-1.502;2024-01-06T12:41:29;101014.00;;;7.70;100.00
23867;BME280;12114;53.404;-1.502;2024-01-06T12:44:12;101019.22;;;7.80;100.00
23867;BME280;12114;53.404;-1.502;2024-01-06T12:46:56;101014.81;;;7.79;100.00
23867;BME280;12114;53.404;-1.502;2024-01-06T12:49:40;101016.13;;;7.82;100.00
23867;BME280;12114;53.404;-1.502;2024-01-06T12:52:24;101016.13;;;7.90;100.00
23867;BME280;12114;53.404;-1.502;2024-01-06T12:55:08;101015.50;;;7.93;100.00
23867;BME280;12114;53.404;-1.502;2024-01-06T12:57:52;101016.13;;;7.99;100.00
23867;BME280;12114;53.404;-1.502;2024-01-06T13:00:37;101017.06;;;8.03;100.00
23867;BME280;12114;53.404;-1.502;2024-01-06T13:03:22;101008.78;;;8.11;100.00
23867;BME280;12114;53.404;-1.502;2024-01-06T13:06:06;101017.72;;;8.17;100.00
23867;BME280;12114;53.404;-1.502;2024-01-06T13:08:51;101008.28;;;8.09;100.00
23867;BME280;12114;53.404;-1.502;2024-01-06T13:11:35;101011.88;;;8.01;100.00
23867;BME280;12114;53.404;-1.502;2024-01-06T13:14:20;101008.66;;;7.99;100.00
23867;BME280;12114;53.404;-1.502;2024-01-06T13:17:04;101010.41;;;8.04;100.00
23867;BME280;12114;53.404;-1.502;2024-01-06T13:19:49;101021.03;;;7.93;100.00
23867;BME280;12114;53.404;-1.502;2024-01-06T13:22:33;101027.84;;;7.96;100.00
23867;BME280;12114;53.404;-1.502;2024-01-06T13:25:17;101017.59;;;7.88;100.00
23867;BME280;12114;53.404;-1.502;2024-01-06T13:28:04;101019.69;;;7.82;100.00
23867;BME280;12114;53.404;-1.502;2024-01-06T13:30:50;101019.88;;;7.86;100.00
23867;BME280;12114;53.404;-1.502;2024-01-06T13:33:34;101020.69;;;7.86;100.00
23867;BME280;12114;53.404;-1.502;2024-01-06T13:36:20;101025.41;;;7.94;100.00
23867;BME280;12114;53.404;-1.502;2024-01-06T13:39:04;101036.16;;;7.96;100.00
23867;BME280;12114;53.404;-1.502;2024-01-06T13:41:49;101029.47;;;7.97;100.00
23867;BME280;12114;53.404;-1.502;2024-01-06T13:44:34;101027.00;;;8.04;100.00
23867;BME280;12114;53.404;-1.502;2024-01-06T13:47:18;101035.00;;;8.14;100.00
23867;BME280;12114;53.404;-1.502;2024-01-06T13:50:02;101032.38;;;8.26;100.00
23867;BME280;12114;53.404;-1.502;2024-01-06T13:52:46;101039.69;;;8.31;100.00
23867;BME280;12114;53.404;-1.502;2024-01-06T13:55:30;101034.50;;;8.20;100.00
23867;BME280;12114;53.404;-1.502;2024-01-06T13:58:14;101042.31;;;8.10;100.00
23867;BME280;12114;53.404;-1.502;2024-01-06T14:00:58;101037.75;;;8.14;100.00
23867;BME280;12114;53.404;-1.502;2024-01-06T14:03:42;101051.91;;;8.21;100.00
23867;BME280;12114;53.404;-1.502;2024-01-06T14:06:26;101051.59;;;8.22;100.00
23867;BME280;12114;53.404;-1.502;2024-01-06T14:09:13;101049.16;;;8.12;100.00